Time;durP1;ratioP1;P1;durP2;ratioP2;P2;SDS_P1;SDS_P2;PMS_P1;PMS_P2;Temp;Humidity;BMP_temperature;BMP_pressure;BME280_temperature;BME280_humidity;BME280_pressure;Samples;Min_cycle;Max_cycle;Signal;HPM_P1;HPM_P2
2022/04/25 00:00:15;;;;;;;21.27;14.90;;;9.70;99.90;;;;;;5075109;28;20217;-63
2022/04/25 00:02:41;;;;;;;19.10;13.53;;;9.80;99.90;;;;;;5074954;28;20288;-63
2022/04/25 00:05:07;;;;;;;19.77;13.30;;;9.80;99.90;;;;;;5074829;28;20209;-62
2022/04/25 00:07:33;;;;;;;19.60;13.83;;;9.80;99.90;;;;;;5074879;28;20610;-63
2022/04/25 00:09:58;;;;;;;16.63;13.27;;;9.70;99.90;;;;;;5074723;28;20220;-63
2022/04/25 00:12:24;;;;;;;17.67;13.50;;;9.70;99.90;;;;;;5075148;28;20595;-63
2022/04/25 00:14:50;;;;;;;19.27;13.57;;;9.70;99.90;;;;;;5074670;28;20166;-62
2022/04/25 00:17:16;;;;;;;17.03;13.53;;;9.70;99.90;;;;;;5075136;28;20178;-63
2022/04/25 00:19:42;;;;;;;18.30;13.60;;;9.70;99.90;;;;;;5074137;28;20231;-63
2022/04/25 00:22:07;;;;;;;18.10;13.80;;;9.70;99.90;;;;;;5074900;28;20281;-63
2022/04/25 00:24:33;;;;;;;23.97;13.70;;;9.70;99.90;;;;;;5073191;28;20268;-63
2022/04/25 00:26:59;;;;;;;20.17;14.63;;;9.70;99.90;;;;;;5074969;28;20184;-63
2022/04/25 00:29:24;;;;;;;19.50;14.07;;;9.60;99.90;;;;;;5074551;28;20254;-63
2022/04/25 00:31:50;;;;;;;18.23;13.67;;;9.60;99.90;;;;;;5074321;28;20190;-63
2022/04/25 00:34:16;;;;;;;19.70;14.47;;;9.60;99.90;;;;;;5074500;28;20177;-62
2022/04/25 00:36:41;;;;;;;16.67;13.20;;;9.60;99.90;;;;;;5074075;28;20166;-63
2022/04/25 00:39:07;;;;;;;18.60;13.73;;;9.60;99.90;;;;;;5074049;28;20185;-63
2022/04/25 00:41:33;;;;;;;19.53;14.27;;;9.60;99.90;;;;;;5072882;28;20190;-63
2022/04/25 00:43:59;;;;;;;19.97;14.33;;;9.60;99.90;;;;;;5074804;28;20208;-63
2022/04/25 00:46:26;;;;;;;17.30;13.63;;;9.50;99.90;;;;;;5074235;28;20537;-63
2022/04/25 00:48:52;;;;;;;19.43;14.60;;;9.50;99.90;;;;;;5074334;28;20208;-62
2022/04/25 00:51:19;;;;;;;19.40;13.77;;;9.50;99.90;;;;;;5073673;28;20224;-63
2022/04/25 00:53:47;;;;;;;18.40;14.13;;;9.50;99.90;;;;;;5074272;28;20170;-63
2022/04/25 00:56:17;;;;;;;18.87;13.73;;;9.50;99.90;;;;;;5072640;28;20689;-63
2022/04/25 00:58:46;;;;;;;16.00;13.53;;;9.50;99.90;;;;;;5073938;28;20178;-63
2022/04/25 01:01:13;;;;;;;18.13;14.33;;;9.50;99.90;;;;;;5074081;28;20593;-63
2022/04/25 01:03:39;;;;;;;18.30;13.63;;;9.50;99.90;;;;;;5073715;28;20198;-63
2022/04/25 01:06:05;;;;;;;18.47;14.10;;;9.50;99.90;;;;;;5073655;28;20174;-63
2022/04/25 01:08:34;;;;;;;19.43;14.57;;;9.40;99.90;;;;;;5072536;28;20633;-64
2022/04/25 01:11:04;;;;;;;19.03;14.47;;;9.40;99.90;;;;;;5073596;28;20204;-64
2022/04/25 01:13:30;;;;;;;20.10;15.07;;;9.50;99.90;;;;;;5073747;28;20200;-64
2022/04/25 01:15:56;;;;;;;17.13;14.20;;;9.50;99.90;;;;;;5073623;28;20657;-64
2022/04/25 01:18:22;;;;;;;17.87;12.97;;;9.40;99.90;;;;;;5073917;28;20178;-65
2022/04/25 01:20:50;;;;;;;15.00;13.00;;;9.40;99.90;;;;;;5073375;28;20181;-64
2022/04/25 01:28:51;;;;;;;15.23;11.93;;;8.90;99.90;;;;;;5073868;28;20188;-64
2022/04/25 01:31:17;;;;;;;17.73;13.20;;;8.50;99.90;;;;;;5072856;28;20173;-63
2022/04/25 01:33:42;;;;;;;15.67;11.37;;;8.30;99.90;;;;;;5073412;28;20196;-64
2022/04/25 01:36:08;;;;;;;15.60;11.73;;;8.10;99.90;;;;;;5073297;28;20181;-64
2022/04/25 01:38:34;;;;;;;15.23;11.03;;;8.10;99.90;;;;;;5073505;28;20186;-65
2022/04/25 01:41:00;;;;;;;13.20;10.47;;;7.90;99.90;;;;;;5073657;28;20177;-64
2022/04/25 01:43:25;;;;;;;14.00;10.37;;;7.80;99.90;;;;;;5072041;28;20198;-64
2022/04/25 01:45:51;;;;;;;14.10;9.50;;;7.70;99.90;;;;;;5073699;28;20204;-65
2022/04/25 01:48:17;;;;;;;12.67;9.67;;;7.70;99.90;;;;;;5073314;28;20201;-64
2022/04/25 01:50:43;;;;;;;12.80;8.73;;;7.70;99.90;;;;;;5073408;28;20627;-64
2022/04/25 01:53:08;;;;;;;11.40;8.63;;;7.70;99.90;;;;;;5073215;28;20186;-64
2022/04/25 01:55:34;;;;;;;11.77;9.53;;;7.70;99.90;;;;;;5073431;28;20630;-64
2022/04/25 01:58:00;;;;;;;11.60;9.87;;;7.90;99.90;;;;;;5073190;28;20704;-65
2022/04/25 02:00:26;;;;;;;10.87;9.47;;;8.00;99.90;;;;;;5073542;28;20284;-64
2022/04/25 02:02:51;;;;;;;12.83;9.53;;;8.10;99.90;;;;;;5073344;28;20193;-65
2022/04/25 02:05:17;;;;;;;15.57;10.73;;;8.20;99.90;;;;;;5071660;28;20223;-65
2022/04/25 02:07:43;;;;;;;16.83;12.50;;;8.20;99.90;;;;;;5073033;28;20627;-64
2022/04/25 02:10:09;;;;;;;15.83;11.83;;;8.10;99.90;;;;;;5072988;28;20198;-65
2022/04/25 02:12:35;;;;;;;16.37;11.50;;;8.10;99.90;;;;;;5073208;28;20217;-65
2022/04/25 02:15:01;;;;;;;18.73;12.37;;;8.10;99.90;;;;;;5073238;28;20205;-64
2022/04/25 02:17:27;;;;;;;16.40;11.90;;;7.90;99.90;;;;;;5073379;28;20173;-65
2022/04/25 02:19:53;;;;;;;17.87;12.53;;;7.90;99.90;;;;;;5073251;28;20180;-64
2022/04/25 02:22:19;;;;;;;17.13;12.37;;;7.90;99.90;;;;;;5072884;28;20566;-65
2022/04/25 02:24:45;;;;;;;17.40;11.90;;;7.90;99.90;;;;;;5073019;28;20181;-64
2022/04/25 02:27:11;;;;;;;18.57;12.63;;;7.80;99.90;;;;;;5072009;28;20239;-64
2022/04/25 02:29:39;;;;;;;16.40;12.93;;;7.80;99.90;;;;;;5072997;28;20193;-65
2022/04/25 02:32:06;;;;;;;18.23;12.97;;;7.60;99.90;;;;;;5073034;28;20190;-65
2022/04/25 02:34:31;;;;;;;17.60;12.63;;;7.60;99.90;;;;;;5072805;28;20174;-65
2022/04/25 02:36:57;;;;;;;18.33;12.80;;;7.70;99.90;;;;;;5072880;28;20177;-65
2022/04/25 02:39:24;;;;;;;17.23;12.20;;;7.70;99.90;;;;;;5071501;28;20240;-65
2022/04/25 02:41:50;;;;;;;16.70;12.10;;;7.70;99.90;;;;;;5073224;28;20205;-65
2022/04/25 02:44:17;;;;;;;16.93;12.10;;;7.60;99.90;;;;;;5076684;28;20182;-64
2022/04/25 02:46:43;;;;;;;16.93;11.20;;;7.70;99.90;;;;;;5077309;28;20166;-65
2022/04/25 02:49:08;;;;;;;17.50;11.80;;;7.70;99.90;;;;;;5077057;28;20189;-65
2022/04/25 02:51:34;;;;;;;17.07;12.20;;;7.70;99.90;;;;;;5075281;28;20178;-64
2022/04/25 02:54:00;;;;;;;16.77;11.50;;;7.70;99.90;;;;;;5076792;28;20184;-65
2022/04/25 02:56:26;;;;;;;16.17;12.00;;;7.70;99.90;;;;;;5076351;28;20177;-65
2022/04/25 02:58:51;;;;;;;18.17;12.53;;;7.70;99.90;;;;;;5076564;28;20268;-65
2022/04/25 03:01:17;;;;;;;19.37;11.20;;;7.60;99.90;;;;;;5076321;28;20174;-64
2022/04/25 03:03:43;;;;;;;14.27;11.87;;;7.60;99.90;;;;;;5076717;28;20511;-65
2022/04/25 03:06:10;;;;;;;17.63;12.03;;;7.60;99.90;;;;;;5076109;28;20684;-65
2022/04/25 03:08:37;;;;;;;19.17;11.63;;;7.60;99.90;;;;;;5076111;28;20208;-65
2022/04/25 03:11:05;;;;;;;19.43;12.20;;;7.60;99.90;;;;;;5076082;28;20181;-65
2022/04/25 03:13:31;;;;;;;17.17;11.90;;;7.60;99.90;;;;;;5076023;28;20655;-65
2022/04/25 03:15:57;;;;;;;16.90;13.10;;;7.70;99.90;;;;;;5076444;28;20269;-65
2022/04/25 03:18:23;;;;;;;16.43;12.80;;;7.70;99.90;;;;;;5077024;28;20257;-65
2022/04/25 03:20:50;;;;;;;18.50;12.50;;;7.70;99.90;;;;;;5076976;28;20662;-66
2022/04/25 03:23:20;;;;;;;16.77;13.27;;;7.70;99.90;;;;;;5076774;28;20217;-65
2022/04/25 03:25:47;;;;;;;16.43;12.63;;;7.70;99.90;;;;;;5076828;28;20162;-65
2022/04/25 03:28:13;;;;;;;16.67;13.00;;;7.60;99.90;;;;;;5076073;28;20218;-65
2022/04/25 03:30:39;;;;;;;16.67;13.20;;;7.60;99.90;;;;;;5076199;28;20264;-64
2022/04/25 03:33:05;;;;;;;19.47;13.80;;;7.50;99.90;;;;;;5076361;28;20262;-65
2022/04/25 03:35:32;;;;;;;20.00;13.10;;;7.50;99.90;;;;;;5075929;28;20165;-64
2022/04/25 03:37:58;;;;;;;18.30;13.57;;;7.50;99.90;;;;;;5075593;28;20189;-65
2022/04/25 03:40:24;;;;;;;22.23;13.80;;;7.50;99.90;;;;;;5075451;28;20519;-65
2022/04/25 03:42:50;;;;;;;19.40;14.63;;;7.50;99.90;;;;;;5075606;28;20202;-65
2022/04/25 03:45:18;;;;;;;19.73;13.63;;;7.50;99.90;;;;;;5075321;28;20182;-66
2022/04/25 03:47:47;;;;;;;20.00;14.23;;;7.40;99.90;;;;;;5075143;28;20182;-65
2022/04/25 03:50:14;;;;;;;20.67;14.70;;;7.40;99.90;;;;;;5073986;28;20265;-63
2022/04/25 03:52:43;;;;;;;21.83;13.93;;;7.50;99.90;;;;;;5074554;28;20186;-65
2022/04/25 03:58:04;;;;;;;22.70;15.67;;;7.50;99.90;;;;;;5075046;28;20181;-65
2022/04/25 04:00:32;;;;;;;19.73;15.23;;;7.50;99.90;;;;;;5074969;28;20184;-65
2022/04/25 04:02:58;;;;;;;21.27;15.60;;;7.50;99.90;;;;;;5073647;28;20205;-65
2022/04/25 04:05:25;;;;;;;21.93;15.30;;;7.40;99.90;;;;;;5073245;28;20177;-64
2022/04/25 04:07:51;;;;;;;19.97;14.87;;;7.40;99.90;;;;;;5075145;28;20273;-64
2022/04/25 04:10:18;;;;;;;22.20;15.33;;;7.40;99.90;;;;;;5074679;28;20239;-65
2022/04/25 04:12:48;;;;;;;22.20;15.60;;;7.30;99.90;;;;;;5075058;28;20638;-64
2022/04/25 04:15:15;;;;;;;18.60;14.87;;;7.40;99.90;;;;;;5073599;28;20638;-64
2022/04/25 04:17:42;;;;;;;19.93;15.20;;;7.30;99.90;;;;;;5074580;28;20169;-64
2022/04/25 04:20:08;;;;;;;18.10;14.70;;;7.30;99.90;;;;;;5074919;28;20165;-65
2022/04/25 04:22:36;;;;;;;19.67;14.67;;;7.30;99.90;;;;;;5074354;28;20208;-63
2022/04/25 04:25:06;;;;;;;19.97;15.43;;;7.30;99.90;;;;;;5074596;28;20189;-64
2022/04/25 04:27:32;;;;;;;18.90;14.37;;;7.40;99.90;;;;;;5073421;28;20213;-64
2022/04/25 04:30:00;;;;;;;20.90;15.77;;;7.30;99.90;;;;;;5074887;28;20189;-64
2022/04/25 04:32:29;;;;;;;25.67;15.77;;;7.30;99.90;;;;;;5074648;28;20185;-64
2022/04/25 04:34:58;;;;;;;20.00;14.77;;;7.30;99.90;;;;;;5074605;28;20172;-64
2022/04/25 04:37:25;;;;;;;18.73;14.43;;;7.30;99.90;;;;;;5072991;28;20177;-64
2022/04/25 04:40:28;;;;;;;18.37;14.23;;;7.30;99.90;;;;;;5074367;28;20610;-63
2022/04/25 04:42:40;;;;;;;20.30;15.10;;;7.40;99.90;;;;;;5074108;28;20197;-63
2022/04/25 04:45:06;;;;;;;21.60;16.10;;;7.40;99.90;;;;;;5072776;28;20180;-63
2022/04/25 04:47:36;;;;;;;22.00;15.23;;;7.40;99.90;;;;;;5072855;28;20642;-64
2022/04/25 04:50:03;;;;;;;18.50;14.80;;;7.40;99.90;;;;;;5074025;28;20218;-65
2022/04/25 04:52:28;;;;;;;21.23;15.43;;;7.40;99.90;;;;;;5073759;28;20190;-65
2022/04/25 04:54:54;;;;;;;20.70;15.90;;;7.40;99.90;;;;;;5074297;28;20170;-65
2022/04/25 04:57:20;;;;;;;21.10;17.00;;;7.40;99.90;;;;;;5073873;28;20611;-65
2022/04/25 04:59:45;;;;;;;23.20;16.50;;;7.40;99.90;;;;;;5073669;28;20204;-65
2022/04/25 05:02:11;;;;;;;23.30;16.03;;;7.50;99.90;;;;;;5073711;28;20209;-65
2022/04/25 05:04:38;;;;;;;21.50;16.07;;;7.50;99.90;;;;;;5073385;28;20174;-64
2022/04/25 05:07:04;;;;;;;21.53;15.13;;;7.40;99.90;;;;;;5073526;28;20207;-64
2022/04/25 05:09:30;;;;;;;23.20;16.10;;;7.40;99.90;;;;;;5073606;28;20232;-65
2022/04/25 05:11:56;;;;;;;20.60;15.60;;;7.40;99.90;;;;;;5072258;28;20213;-64
2022/04/25 05:14:21;;;;;;;19.13;14.67;;;7.40;99.90;;;;;;5073694;28;20180;-64
2022/04/25 05:16:47;;;;;;;21.03;15.27;;;7.50;99.90;;;;;;5072370;28;20166;-64
2022/04/25 05:19:13;;;;;;;19.70;15.27;;;7.50;99.90;;;;;;5073870;28;20183;-64
2022/04/25 05:21:39;;;;;;;20.53;14.67;;;7.60;99.90;;;;;;5073262;28;20193;-64
2022/04/25 05:24:06;;;;;;;20.30;14.57;;;7.60;99.90;;;;;;5073866;28;20158;-67
2022/04/25 05:26:32;;;;;;;20.03;14.47;;;7.60;99.90;;;;;;5073481;28;20174;-64
2022/04/25 05:28:57;;;;;;;17.83;13.63;;;7.70;99.90;;;;;;5073401;28;20242;-64
2022/04/25 05:31:23;;;;;;;16.40;12.47;;;7.60;99.90;;;;;;5073581;28;20174;-64
2022/04/25 05:33:49;;;;;;;15.80;12.30;;;7.60;99.90;;;;;;5073777;28;20177;-64
2022/04/25 05:36:15;;;;;;;17.50;13.10;;;7.60;99.90;;;;;;5073140;28;20631;-64
2022/04/25 05:38:40;;;;;;;22.57;14.80;;;7.70;99.90;;;;;;5073578;28;20192;-64
2022/04/25 05:41:09;;;;;;;21.73;16.37;;;7.60;99.90;;;;;;5073250;28;20177;-64
2022/04/25 05:43:36;;;;;;;25.07;18.20;;;7.30;99.90;;;;;;5071892;28;20198;-64
2022/04/25 05:46:02;;;;;;;24.60;17.77;;;7.20;99.90;;;;;;5073228;28;20520;-64
2022/04/25 05:53:57;;;;;;;24.13;17.93;;;7.10;99.90;;;;;;5073423;28;20257;-64
2022/04/25 05:56:23;;;;;;;26.67;18.80;;;7.10;99.90;;;;;;5071993;28;20665;-64
2022/04/25 05:58:48;;;;;;;26.97;18.83;;;7.20;99.90;;;;;;5073028;28;20174;-64
2022/04/25 06:01:14;;;;;;;22.13;16.73;;;7.30;99.90;;;;;;5073377;28;20169;-64
2022/04/25 06:03:40;;;;;;;24.37;16.90;;;7.40;99.90;;;;;;5072970;28;20193;-64
2022/04/25 06:06:06;;;;;;;22.50;15.87;;;7.50;99.90;;;;;;5073048;28;20581;-64
2022/04/25 06:08:31;;;;;;;21.77;15.20;;;7.60;99.90;;;;;;5071597;28;20205;-64
2022/04/25 06:10:57;;;;;;;22.83;15.23;;;7.70;99.90;;;;;;5072838;28;20650;-64
2022/04/25 06:13:25;;;;;;;21.83;16.03;;;7.80;99.90;;;;;;5072888;28;20201;-64
2022/04/25 06:15:51;;;;;;;19.33;13.47;;;7.80;99.90;;;;;;5073884;28;20162;-64
2022/04/25 06:18:17;;;;;;;17.93;14.07;;;7.90;99.90;;;;;;5076931;28;20173;-64
2022/04/25 06:20:43;;;;;;;17.77;13.30;;;7.90;99.90;;;;;;5076100;28;20189;-64
2022/04/25 06:23:09;;;;;;;18.93;12.90;;;8.00;99.90;;;;;;5076702;28;20557;-64
2022/04/25 06:25:37;;;;;;;19.23;13.73;;;8.00;99.90;;;;;;5076665;28;20645;-64
2022/04/25 06:28:04;;;;;;;16.67;13.03;;;8.10;99.90;;;;;;5076753;28;20154;-64
2022/04/25 06:30:30;;;;;;;14.73;11.87;;;8.10;99.90;;;;;;5076477;28;20206;-64
2022/04/25 06:33:00;;;;;;;16.50;11.73;;;8.20;99.90;;;;;;5076393;28;20213;-64
2022/04/25 06:35:26;;;;;;;15.50;10.87;;;8.20;99.90;;;;;;5076782;28;20162;-64
2022/04/25 06:37:52;;;;;;;14.23;11.27;;;8.20;99.90;;;;;;5074734;28;20182;-64
2022/04/25 06:40:20;;;;;;;16.07;11.03;;;8.30;99.90;;;;;;5076680;28;20237;-63
2022/04/25 06:42:46;;;;;;;14.07;10.93;;;8.30;99.90;;;;;;5076281;28;20185;-64
2022/04/25 06:45:13;;;;;;;13.70;11.37;;;8.30;99.90;;;;;;5076522;28;20222;-64
2022/04/25 06:47:39;;;;;;;14.83;10.73;;;8.30;99.90;;;;;;5076485;28;20162;-64
2022/04/25 06:50:05;;;;;;;14.30;10.73;;;8.40;99.90;;;;;;5076142;28;20197;-63
2022/04/25 06:52:31;;;;;;;13.57;11.13;;;8.40;99.90;;;;;;5075839;28;20257;-63
2022/04/25 06:54:57;;;;;;;14.90;11.43;;;8.40;99.90;;;;;;5076079;28;20521;-64
2022/04/25 06:57:23;;;;;;;14.60;10.73;;;8.40;99.90;;;;;;5076425;28;20519;-64
2022/04/25 06:59:48;;;;;;;13.17;9.83;;;8.40;99.90;;;;;;5076252;28;20593;-63
2022/04/25 07:02:15;;;;;;;13.13;10.23;;;8.40;99.90;;;;;;5075832;28;20661;-64
2022/04/25 07:04:42;;;;;;;13.30;9.83;;;8.40;99.90;;;;;;5075891;28;20150;-63
2022/04/25 07:07:08;;;;;;;12.67;10.20;;;8.40;99.90;;;;;;5074333;28;20201;-63
2022/04/25 07:09:34;;;;;;;12.33;10.13;;;8.30;99.90;;;;;;5075680;28;20205;-64
2022/04/25 07:12:01;;;;;;;18.70;14.30;;;8.30;99.90;;;;;;5075609;28;20677;-63
2022/04/25 07:14:33;;;;;;;14.47;10.30;;;8.40;99.90;;;;;;5074453;28;20547;-65
2022/04/25 07:17:01;;;;;;;33.23;21.07;;;8.50;99.90;;;;;;5074346;28;20256;-64
2022/04/25 07:19:27;;;;;;;15.43;11.97;;;8.50;99.90;;;;;;5076106;28;20177;-63
2022/04/25 07:30:05;;;;;;;23.23;16.37;;;8.60;99.90;;;;;;5075601;28;20193;-63
2022/04/25 07:32:32;;;;;;;11.33;9.83;;;8.60;99.90;;;;;;5076181;28;20193;-64
2022/04/25 07:34:58;;;;;;;11.60;10.03;;;8.60;99.90;;;;;;5074046;28;20174;-64
2022/04/25 07:37:24;;;;;;;18.87;14.33;;;8.60;99.90;;;;;;5074847;28;20590;-64
2022/04/25 07:39:51;;;;;;;14.90;10.43;;;8.60;99.90;;;;;;5075777;28;20161;-64
2022/04/25 07:42:18;;;;;;;19.80;15.77;;;8.60;99.90;;;;;;5075448;28;20280;-64
2022/04/25 07:44:47;;;;;;;12.10;10.17;;;8.60;99.90;;;;;;5075107;28;20178;-64
2022/04/25 07:47:13;;;;;;;11.83;9.40;;;8.50;99.90;;;;;;5075160;28;20241;-63
2022/04/25 07:49:40;;;;;;;15.30;10.23;;;8.50;99.90;;;;;;5074872;28;20730;-63
2022/04/25 07:52:06;;;;;;;15.27;11.03;;;8.60;99.90;;;;;;5074717;28;20243;-63
2022/04/25 07:54:32;;;;;;;15.33;12.00;;;8.60;99.90;;;;;;5075061;28;20174;-64
2022/04/25 07:56:58;;;;;;;15.63;12.00;;;8.60;99.90;;;;;;5075029;28;20170;-64
2022/04/25 07:59:24;;;;;;;14.87;11.40;;;8.70;99.90;;;;;;5075214;28;20195;-65
2022/04/25 08:01:50;;;;;;;14.90;11.67;;;8.70;99.90;;;;;;5075015;28;20198;-64
2022/04/25 08:04:16;;;;;;;18.87;13.57;;;8.80;99.90;;;;;;5073483;28;20268;-64
2022/04/25 08:06:41;;;;;;;15.40;12.70;;;8.90;99.90;;;;;;5074471;28;20174;-64
2022/04/25 08:09:07;;;;;;;16.10;12.77;;;9.00;99.90;;;;;;5074522;28;20557;-64
2022/04/25 08:11:33;;;;;;;17.90;13.57;;;8.90;99.90;;;;;;5074613;28;20268;-64
2022/04/25 08:19:30;;;;;;;19.37;14.97;;;8.80;99.90;;;;;;5075075;28;20232;-64
2022/04/25 08:21:57;;;;;;;19.07;14.37;;;8.90;99.90;;;;;;5074122;28;20727;-64
2022/04/25 08:24:23;;;;;;;18.97;14.17;;;9.00;99.90;;;;;;5074473;28;20174;-64
2022/04/25 08:26:49;;;;;;;20.67;15.30;;;9.20;99.90;;;;;;5074335;28;20166;-64
2022/04/25 08:29:14;;;;;;;20.10;15.30;;;9.50;99.90;;;;;;5074436;28;20712;-64
2022/04/25 08:31:40;;;;;;;20.57;15.00;;;9.50;99.90;;;;;;5074102;28;20185;-64
2022/04/25 08:34:08;;;;;;;19.73;14.00;;;9.60;99.90;;;;;;5074207;28;20188;-65
2022/04/25 08:36:35;;;;;;;18.93;14.33;;;9.60;99.90;;;;;;5072754;28;20200;-64
2022/04/25 08:39:00;;;;;;;20.13;15.17;;;9.70;99.90;;;;;;5074023;28;20190;-64
2022/04/25 08:41:39;;;;;;;20.97;15.50;;;9.80;99.90;;;;;;5074312;28;20158;-64
2022/04/25 08:44:06;;;;;;;22.67;15.30;;;10.00;99.90;;;;;;5074136;28;20178;-64
2022/04/25 08:46:34;;;;;;;19.47;13.90;;;10.10;99.90;;;;;;5074538;28;20174;-64
2022/04/25 08:49:05;;;;;;;18.73;14.80;;;10.40;99.90;;;;;;5074384;28;20202;-64
2022/04/25 08:51:35;;;;;;;16.73;13.90;;;10.70;99.90;;;;;;5072569;28;20505;-64
2022/04/25 08:54:03;;;;;;;18.50;14.67;;;10.90;99.90;;;;;;5074309;28;20166;-64
2022/04/25 08:56:29;;;;;;;15.90;12.90;;;10.80;99.90;;;;;;5073783;28;20166;-64
2022/04/25 08:58:56;;;;;;;17.67;12.70;;;10.70;99.90;;;;;;5072630;28;20191;-64
2022/04/25 09:01:22;;;;;;;16.30;13.30;;;10.70;99.90;;;;;;5073812;28;20673;-64
2022/04/25 09:03:47;;;;;;;15.30;11.65;;;10.70;99.90;;;;;;5073745;28;20190;-64
2022/04/25 09:06:13;;;;;;;15.13;12.10;;;10.80;99.90;;;;;;5073808;28;20189;-64
2022/04/25 09:08:39;;;;;;;15.47;11.70;;;11.00;99.90;;;;;;5073664;28;20202;-64
2022/04/25 09:13:49;;;;;;;14.68;11.55;;;11.20;99.90;;;;;;5073728;28;20175;-64
2022/04/25 09:16:16;;;;;;;14.48;11.07;;;11.10;99.90;;;;;;5073562;28;20215;-64
2022/04/25 09:18:42;;;;;;;13.97;10.10;;;11.00;99.90;;;;;;5074413;28;20516;-64
2022/04/25 09:21:12;;;;;;;14.10;10.67;;;10.80;99.90;;;;;;5072194;28;20646;-63
2022/04/25 09:23:37;;;;;;;13.55;10.77;;;10.70;99.90;;;;;;5072016;28;20198;-64
2022/04/25 09:26:11;;;;;;;15.25;11.32;;;10.60;99.90;;;;;;5072286;28;20223;-64
2022/04/25 09:28:56;;;;;;;15.10;11.60;;;10.60;99.90;;;;;;5073643;28;20704;-63
2022/04/25 09:31:25;;;;;;;14.53;11.20;;;10.50;99.90;;;;;;5073679;28;20172;-64
2022/04/25 09:33:51;;;;;;;15.40;11.57;;;10.50;99.90;;;;;;5073873;28;20158;-64
2022/04/25 09:36:17;;;;;;;15.60;12.37;;;10.50;99.90;;;;;;5073787;28;20180;-63
2022/04/25 09:38:44;;;;;;;14.00;11.60;;;10.50;99.90;;;;;;5073380;28;20642;-64
2022/04/25 09:41:14;;;;;;;17.13;13.53;;;10.60;99.90;;;;;;5073741;28;20173;-64
2022/04/25 09:43:42;;;;;;;15.47;12.10;;;10.70;99.90;;;;;;5073280;28;20205;-64
2022/04/25 09:46:12;;;;;;;13.43;11.20;;;10.90;99.90;;;;;;5073330;28;20185;-64
2022/04/25 09:48:41;;;;;;;17.05;12.25;;;11.20;99.90;;;;;;5073144;28;20219;-64
2022/04/25 09:51:17;;;;;;;17.20;11.95;;;11.30;99.90;;;;;;5072776;28;20196;-64
2022/04/25 09:53:52;;;;;;;15.23;12.10;;;11.70;99.90;;;;;;5077272;28;20189;-64
2022/04/25 09:56:18;;;;;;;17.67;13.10;;;12.20;99.90;;;;;;5078401;28;20245;-64
2022/04/25 09:58:59;;;;;;;17.15;13.13;;;12.40;99.90;;;;;;5077758;28;20178;-64
2022/04/25 10:01:25;;;;;;;14.60;11.02;;;12.40;99.90;;;;;;5077306;28;20157;-64
2022/04/25 10:03:50;;;;;;;12.88;10.40;;;12.60;99.90;;;;;;5077274;28;20181;-64
2022/04/25 10:06:16;;;;;;;14.65;10.98;;;12.80;99.90;;;;;;5077203;28;20177;-64
2022/04/25 10:08:43;;;;;;;13.02;10.95;;;12.60;99.90;;;;;;5076668;28;20197;-64
2022/04/25 10:11:11;;;;;;;12.35;10.82;;;12.60;99.90;;;;;;5076870;28;20659;-64
2022/04/25 10:13:38;;;;;;;15.40;11.18;;;12.80;99.90;;;;;;5076833;28;20186;-64
2022/04/25 10:16:04;;;;;;;12.40;10.30;;;12.80;99.90;;;;;;5077274;28;20239;-64
2022/04/25 10:18:31;;;;;;;11.45;9.80;;;12.70;99.90;;;;;;5077141;28;20562;-64
2022/04/25 10:20:58;;;;;;;13.48;10.73;;;12.60;99.90;;;;;;5076928;28;20260;-65
2022/04/25 10:23:25;;;;;;;11.48;9.70;;;12.50;99.90;;;;;;5076590;28;20568;-65
2022/04/25 10:25:54;;;;;;;12.52;10.23;;;12.40;99.90;;;;;;5076886;28;20261;-65
2022/04/25 10:28:33;;;;;;;13.13;9.85;;;12.30;99.90;;;;;;5077019;28;20617;-65
2022/04/25 10:31:05;;;;;;;11.65;9.40;;;12.30;99.90;;;;;;5077005;28;20161;-65
2022/04/25 10:33:51;;;;;;;11.60;10.00;;;12.20;99.90;;;;;;5076938;28;20185;-65
2022/04/25 10:36:38;;;;;;;13.35;11.00;;;12.20;99.90;;;;;;5077412;28;20200;-64
2022/04/25 10:39:29;;;;;;;14.85;10.73;;;12.00;99.90;;;;;;5076670;28;20642;-64
2022/04/25 10:44:45;;;;;;;11.32;9.48;;;11.80;99.90;;;;;;5076525;28;20596;-65
2022/04/25 10:47:20;;;;;;;15.40;10.75;;;11.80;99.90;;;;;;5076714;28;20633;-64
2022/04/25 10:50:02;;;;;;;14.93;11.38;;;11.90;99.90;;;;;;5076331;28;20268;-65
2022/04/25 10:52:34;;;;;;;12.77;10.32;;;11.80;99.90;;;;;;5076084;28;20194;-65
2022/04/25 10:55:13;;;;;;;14.13;11.05;;;11.90;99.90;;;;;;5076210;28;20165;-64
2022/04/25 10:58:04;;;;;;;13.30;10.85;;;12.00;99.90;;;;;;5076519;28;20161;-64
2022/04/25 11:00:39;;;;;;;15.90;11.32;;;12.10;99.90;;;;;;5076011;28;20691;-64
2022/04/25 11:03:08;;;;;;;14.88;11.82;;;12.30;99.90;;;;;;5073569;28;20194;-65
2022/04/25 11:05:48;;;;;;;16.58;12.20;;;12.30;99.90;;;;;;5076849;28;20743;-64
2022/04/25 11:08:19;;;;;;;99.45;54.53;;;12.50;99.90;;;;;;5075602;28;20182;-64
2022/04/25 11:10:45;;;;;;;49.25;29.30;;;12.60;99.90;;;;;;5075983;28;20189;-64
2022/04/25 11:13:15;;;;;;;15.13;12.18;;;12.60;99.90;;;;;;5074472;28;20565;-63
2022/04/25 11:15:53;;;;;;;12.48;10.90;;;12.60;99.90;;;;;;5074563;28;20200;-64
2022/04/25 11:18:34;;;;;;;11.95;10.45;;;12.70;99.90;;;;;;5075645;28;20169;-64
2022/04/25 11:21:08;;;;;;;13.80;11.02;;;12.70;99.90;;;;;;5075847;28;20162;-64
2022/04/25 11:23:55;;;;;;;11.70;9.70;;;12.60;99.90;;;;;;5075393;28;20220;-64
2022/04/25 11:26:26;;;;;;;10.70;9.60;;;12.60;99.90;;;;;;5075635;28;20566;-65
2022/04/25 11:28:54;;;;;;;13.55;10.13;;;12.50;99.90;;;;;;5076151;28;20195;-64
2022/04/25 11:31:25;;;;;;;13.25;10.70;;;12.60;99.90;;;;;;5075828;28;20166;-65
2022/04/25 11:33:52;;;;;;;12.18;10.20;;;12.70;99.90;;;;;;5074561;28;20589;-64
2022/04/25 11:36:20;;;;;;;13.38;10.18;;;12.60;99.90;;;;;;5074300;28;20236;-64
2022/04/25 11:41:34;;;;;;;13.13;10.18;;;12.70;99.90;;;;;;5075907;28;20184;-64
2022/04/25 11:44:00;;;;;;;11.63;9.50;;;12.60;99.90;;;;;;5074063;28;20173;-64
2022/04/25 11:46:28;;;;;;;14.40;10.05;;;12.50;99.90;;;;;;5075451;28;20174;-64
2022/04/25 11:48:55;;;;;;;12.77;10.10;;;12.40;99.90;;;;;;5075210;28;20251;-64
2022/04/25 11:51:38;;;;;;;11.40;9.90;;;12.40;99.90;;;;;;5075478;28;20245;-64
2022/04/25 11:54:10;;;;;;;12.50;10.43;;;12.40;99.90;;;;;;5075016;28;20529;-64
2022/04/25 11:56:40;;;;;;;15.00;12.15;;;12.30;99.90;;;;;;5075149;28;20260;-64
2022/04/25 11:59:18;;;;;;;27.80;21.90;;;12.30;99.90;;;;;;5075249;28;20158;-65
2022/04/25 12:01:52;;;;;;;20.83;16.63;;;12.20;99.90;;;;;;5075156;28;20185;-64
2022/04/25 12:04:39;;;;;;;15.13;12.70;;;12.20;99.90;;;;;;5075372;28;20162;-64
2022/04/25 12:07:07;;;;;;;14.15;11.57;;;12.20;99.90;;;;;;5075804;28;20245;-65
2022/04/25 12:18:25;;;;;;;13.57;10.90;;;12.50;99.90;;;;;;5075268;28;20610;-65
2022/04/25 12:21:05;;;;;;;13.98;11.10;;;12.50;99.90;;;;;;5075238;28;20154;-65
2022/04/25 12:23:51;;;;;;;12.65;10.63;;;12.40;99.90;;;;;;5074524;28;20346;-64
2022/04/25 12:26:26;;;;;;;15.38;11.82;;;12.40;99.90;;;;;;5073298;28;20158;-64
2022/04/25 12:28:59;;;;;;;13.00;11.60;;;12.40;99.90;;;;;;5073209;28;20280;-63
2022/04/25 12:31:25;;;;;;;12.20;10.27;;;12.40;99.90;;;;;;5074850;28;20150;-63
2022/04/25 12:33:51;;;;;;;15.00;12.18;;;12.20;99.90;;;;;;5075124;28;20154;-64
2022/04/25 12:36:27;;;;;;;16.13;12.15;;;12.10;99.90;;;;;;5074592;28;20166;-64
2022/04/25 12:38:59;;;;;;;14.38;11.57;;;12.00;99.90;;;;;;5074040;28;20183;-64
2022/04/25 12:41:30;;;;;;;14.88;12.80;;;11.80;99.90;;;;;;5074143;28;20182;-64
2022/04/25 12:43:58;;;;;;;14.82;12.20;;;11.80;99.90;;;;;;5074249;28;20165;-64
2022/04/25 12:46:40;;;;;;;15.05;13.07;;;11.60;99.90;;;;;;5074363;28;20170;-64
2022/04/25 12:49:34;;;;;;;17.35;13.07;;;11.60;99.90;;;;;;5074033;28;20198;-64
2022/04/25 12:52:00;;;;;;;17.83;12.60;;;11.40;99.90;;;;;;5073672;28;20258;-64
2022/04/25 12:54:33;;;;;;;16.98;13.52;;;11.30;99.90;;;;;;5074567;28;20150;-64
2022/04/25 12:57:23;;;;;;;18.95;12.98;;;11.20;99.90;;;;;;5074489;28;20164;-66
2022/04/25 12:59:51;;;;;;;16.77;12.65;;;11.10;99.90;;;;;;5074290;28;20158;-64
2022/04/25 13:02:39;;;;;;;15.20;12.18;;;11.10;99.90;;;;;;5074144;28;20201;-64
2022/04/25 13:05:09;;;;;;;15.02;11.95;;;11.10;99.90;;;;;;5074485;28;20158;-64
2022/04/25 13:07:43;;;;;;;13.82;11.10;;;11.00;99.90;;;;;;5073513;28;20169;-64
2022/04/25 13:10:20;;;;;;;17.48;11.25;;;11.00;99.90;;;;;;5074224;28;20741;-64
2022/04/25 13:12:49;;;;;;;10.90;8.93;;;11.00;99.90;;;;;;5075200;28;20197;-64
2022/04/25 13:15:20;;;;;;;10.50;8.15;;;11.10;99.90;;;;;;5074548;28;20154;-64
2022/04/25 13:17:48;;;;;;;8.82;7.25;;;11.20;99.90;;;;;;5074353;28;20514;-64
2022/04/25 13:20:16;;;;;;;11.00;8.43;;;11.30;99.90;;;;;;5072614;28;20182;-64
2022/04/25 13:22:43;;;;;;;10.18;7.78;;;11.50;99.90;;;;;;5073197;28;20583;-64